Time;durP1;ratioP1;P1;durP2;ratioP2;P2;SDS_P1;SDS_P2;PMS_P1;PMS_P2;Temp;Humidity;BMP_temperature;BMP_pressure;BME280_temperature;BME280_humidity;BME280_pressure;Samples;Min_cycle;Max_cycle;Signal;HPM_P1;HPM_P2
2022/10/25 00:00:09;;;;;;;10.65;5.32;;;;;;;;;;5032233;28;20017;-79
2022/10/25 00:02:36;;;;;;;9.20;6.07;;;;;;;;;;5033553;28;20070;-80
2022/10/25 00:05:02;;;;;;;9.85;5.22;;;;;;;;;;5033513;28;20095;-81
2022/10/25 00:07:28;;;;;;;12.35;5.82;;;;;;;;;;5033463;28;20033;-79
2022/10/25 00:09:54;;;;;;;13.40;6.63;;;;;;;;;;5033534;28;20018;-80
2022/10/25 00:12:20;;;;;;;10.25;6.55;;;;;;;;;;5033209;28;20021;-79
2022/10/25 00:14:46;;;;;;;10.48;5.78;;;;;;;;;;5033449;28;20104;-79
2022/10/25 00:17:13;;;;;;;11.52;7.00;;;;;;;;;;5033203;28;20048;-81
2022/10/25 00:19:39;;;;;;;9.50;6.07;;;;;;;;;;5033395;28;20018;-78
2022/10/25 00:22:05;;;;;;;12.50;7.13;;;;;;;;;;5035111;28;20423;-80
2022/10/25 00:24:31;;;;;;;9.27;6.50;;;;;;;;;;5033940;28;20022;-80
2022/10/25 00:26:57;;;;;;;14.15;7.35;;;;;;;;;;5037896;28;20425;-79
2022/10/25 00:29:23;;;;;;;10.38;6.78;;;;;;;;;;5033254;28;20095;-79
2022/10/25 00:31:49;;;;;;;9.75;7.75;;;;;;;;;;5033107;28;20021;-79
2022/10/25 00:34:15;;;;;;;15.88;8.52;;;;;;;;;;5032934;28;20017;-79
2022/10/25 00:36:42;;;;;;;10.50;7.57;;;;;;;;;;5031298;28;20044;-80
2022/10/25 00:39:08;;;;;;;13.85;7.82;;;;;;;;;;5032865;28;20402;-79
2022/10/25 00:41:34;;;;;;;12.80;7.00;;;;;;;;;;5032519;28;20087;-79
2022/10/25 00:44:19;;;;;;;10.07;8.30;;;;;;;;;;5031546;28;20509;-79
2022/10/25 00:46:45;;;;;;;10.80;7.22;;;;;;;;;;5032859;28;20140;-78
2022/10/25 00:49:17;;;;;;;15.75;7.60;;;;;;;;;;5033416;28;20029;-80
2022/10/25 00:51:53;;;;;;;9.25;6.95;;;;;;;;;;5034412;28;20053;-80
2022/10/25 00:54:24;;;;;;;12.18;8.57;;;;;;;;;;5045339;28;20385;-79
2022/10/25 00:56:51;;;;;;;13.20;8.57;;;;;;;;;;5039365;28;20033;-81
2022/10/25 00:59:23;;;;;;;16.77;9.35;;;;;;;;;;5034731;28;20021;-79
2022/10/25 01:01:49;;;;;;;11.48;7.35;;;;;;;;;;5032748;28;20096;-80
2022/10/25 01:04:16;;;;;;;11.13;8.05;;;;;;;;;;5032757;28;20037;-75
2022/10/25 01:06:47;;;;;;;10.50;7.32;;;;;;;;;;5032703;28;20018;-79
2022/10/25 01:09:15;;;;;;;15.60;8.70;;;;;;;;;;5032570;28;20071;-79
2022/10/25 01:11:41;;;;;;;12.05;7.82;;;;;;;;;;5033160;28;20029;-79
2022/10/25 01:14:08;;;;;;;11.70;7.90;;;;;;;;;;5033171;28;20364;-80
2022/10/25 01:16:42;;;;;;;12.60;8.38;;;;;;;;;;5033565;28;20060;-79
2022/10/25 01:19:27;;;;;;;12.68;8.32;;;;;;;;;;5043995;28;20390;-78
2022/10/25 01:21:56;;;;;;;12.20;8.77;;;;;;;;;;5037608;28;20025;-80
2022/10/25 01:24:25;;;;;;;17.10;8.98;;;;;;;;;;5031617;28;20108;-79
2022/10/25 01:27:09;;;;;;;10.80;7.82;;;;;;;;;;5023674;28;20113;-80
2022/10/25 01:29:41;;;;;;;11.48;8.80;;;;;;;;;;5032275;28;20025;-79
2022/10/25 01:32:15;;;;;;;10.88;8.15;;;;;;;;;;5033074;28;20049;-79
2022/10/25 01:34:46;;;;;;;10.77;7.57;;;;;;;;;;5032855;28;20036;-78
2022/10/25 01:37:31;;;;;;;14.63;7.80;;;;;;;;;;5033009;28;20041;-79
2022/10/25 01:40:03;;;;;;;12.13;7.30;;;;;;;;;;5031002;28;20041;-79
2022/10/25 01:42:37;;;;;;;12.80;8.32;;;;;;;;;;5032444;28;20053;-78
2022/10/25 01:45:09;;;;;;;12.18;7.78;;;;;;;;;;5032180;28;20015;-79
2022/10/25 01:47:48;;;;;;;8.73;6.75;;;;;;;;;;5032164;28;20029;-79
2022/10/25 01:50:17;;;;;;;8.52;6.18;;;;;;;;;;5031620;28;20493;-80
2022/10/25 01:52:43;;;;;;;10.30;6.47;;;;;;;;;;5032094;28;20041;-79
2022/10/25 01:55:12;;;;;;;9.25;7.18;;;;;;;;;;5030490;28;20033;-78
2022/10/25 01:57:41;;;;;;;10.15;6.68;;;;;;;;;;5031674;28;20056;-79
2022/10/25 02:00:11;;;;;;;15.02;6.45;;;;;;;;;;5031797;28;20017;-79
2022/10/25 02:02:40;;;;;;;10.93;7.50;;;;;;;;;;5032737;28;20030;-78
2022/10/25 02:05:20;;;;;;;10.65;8.35;;;;;;;;;;5036113;28;20093;-80
2022/10/25 02:07:53;;;;;;;11.70;6.45;;;;;;;;;;5037613;28;20498;-80
2022/10/25 02:10:24;;;;;;;9.90;5.88;;;;;;;;;;5037758;28;20030;-80
2022/10/25 02:12:50;;;;;;;11.18;7.00;;;;;;;;;;5035666;28;20387;-79
2022/10/25 02:15:24;;;;;;;10.13;5.68;;;;;;;;;;5035730;28;20022;-80
2022/10/25 02:17:54;;;;;;;11.35;6.00;;;;;;;;;;5036173;28;20037;-81
2022/10/25 02:20:25;;;;;;;9.98;6.13;;;;;;;;;;5037662;28;20026;-80
2022/10/25 02:22:52;;;;;;;7.95;5.65;;;;;;;;;;5041549;28;20060;-79
2022/10/25 02:25:18;;;;;;;7.38;5.43;;;;;;;;;;5035509;28;20053;-80
2022/10/25 02:27:45;;;;;;;11.50;6.75;;;;;;;;;;5035903;28;20454;-81
2022/10/25 02:30:11;;;;;;;10.02;5.70;;;;;;;;;;5037903;28;20033;-80
2022/10/25 02:32:37;;;;;;;8.02;5.22;;;;;;;;;;5040305;28;20025;-81
2022/10/25 02:35:04;;;;;;;7.80;5.13;;;;;;;;;;5038326;28;20490;-81
2022/10/25 02:37:31;;;;;;;8.98;6.65;;;;;;;;;;5036469;28;20033;-80
2022/10/25 02:39:57;;;;;;;10.25;6.50;;;;;;;;;;5035431;28;20066;-81
2022/10/25 02:42:23;;;;;;;11.02;6.38;;;;;;;;;;5035676;28;20017;-79
2022/10/25 02:44:51;;;;;;;11.80;5.65;;;;;;;;;;5035801;28;20123;-81
2022/10/25 02:47:17;;;;;;;9.60;6.28;;;;;;;;;;5043521;28;20025;-79
2022/10/25 02:49:43;;;;;;;11.27;6.93;;;;;;;;;;5049742;28;20021;-80
2022/10/25 02:52:09;;;;;;;12.32;5.75;;;;;;;;;;5037652;28;20044;-81
2022/10/25 02:54:35;;;;;;;11.95;6.32;;;;;;;;;;5036196;28;20410;-80
2022/10/25 02:57:01;;;;;;;9.88;7.13;;;;;;;;;;5035108;28;20489;-79
2022/10/25 02:59:28;;;;;;;9.48;5.22;;;;;;;;;;5035168;28;20030;-82
2022/10/25 03:01:54;;;;;;;10.07;6.45;;;;;;;;;;5034896;28;20487;-83
2022/10/25 03:04:20;;;;;;;8.90;5.70;;;;;;;;;;5035066;28;20429;-81
2022/10/25 03:06:47;;;;;;;9.57;6.60;;;;;;;;;;5034902;28;20033;-81
2022/10/25 03:09:13;;;;;;;10.50;6.93;;;;;;;;;;5034979;28;20052;-81
2022/10/25 03:11:39;;;;;;;15.18;6.18;;;;;;;;;;5034747;28;20021;-80
2022/10/25 03:14:05;;;;;;;12.18;6.55;;;;;;;;;;5034237;28;20033;-80
2022/10/25 03:16:31;;;;;;;8.48;5.30;;;;;;;;;;5034853;28;20041;-81
2022/10/25 03:18:58;;;;;;;9.15;5.78;;;;;;;;;;5035352;28;20028;-79
2022/10/25 03:21:24;;;;;;;15.67;5.80;;;;;;;;;;5035374;28;20021;-79
2022/10/25 03:23:51;;;;;;;11.00;6.25;;;;;;;;;;5034122;28;20317;-77
2022/10/25 03:26:17;;;;;;;8.95;5.70;;;;;;;;;;5033267;28;20490;-79
2022/10/25 03:28:43;;;;;;;8.40;5.53;;;;;;;;;;5034903;28;20029;-79
2022/10/25 03:31:14;;;;;;;8.43;5.20;;;;;;;;;;5034486;28;20024;-80
2022/10/25 03:33:40;;;;;;;9.65;5.68;;;;;;;;;;5033623;28;20037;-79
2022/10/25 03:36:06;;;;;;;9.48;5.22;;;;;;;;;;5034471;28;20021;-79
2022/10/25 03:38:33;;;;;;;7.32;4.95;;;;;;;;;;5034228;28;20037;-79
2022/10/25 03:40:59;;;;;;;8.20;5.30;;;;;;;;;;5032886;28;20029;-79
2022/10/25 03:43:25;;;;;;;9.75;6.28;;;;;;;;;;5033870;28;20021;-80
2022/10/25 03:45:51;;;;;;;9.35;5.65;;;;;;;;;;5034026;28;20028;-80
2022/10/25 03:48:17;;;;;;;10.35;5.50;;;;;;;;;;5034600;28;20032;-79
2022/10/25 03:50:43;;;;;;;8.02;5.43;;;;;;;;;;5035126;28;20057;-79
2022/10/25 03:53:10;;;;;;;12.27;5.78;;;;;;;;;;5040164;28;20041;-81
2022/10/25 03:55:36;;;;;;;10.38;5.90;;;;;;;;;;5039390;28;20103;-81
2022/10/25 03:58:02;;;;;;;9.52;5.97;;;;;;;;;;5042041;28;20029;-81
2022/10/25 04:00:28;;;;;;;9.27;6.15;;;;;;;;;;5033915;28;20022;-80
2022/10/25 04:02:55;;;;;;;14.38;5.97;;;;;;;;;;5033973;28;20034;-80
2022/10/25 04:05:21;;;;;;;14.60;6.40;;;;;;;;;;5033598;28;20022;-79
2022/10/25 04:07:47;;;;;;;10.73;5.82;;;;;;;;;;5033728;28;20163;-79
2022/10/25 04:10:13;;;;;;;10.10;6.72;;;;;;;;;;5033285;28;20047;-80
2022/10/25 04:12:40;;;;;;;11.10;7.18;;;;;;;;;;5033638;28;20036;-81
2022/10/25 04:15:06;;;;;;;13.80;6.75;;;;;;;;;;5032302;28;20116;-80
2022/10/25 04:17:32;;;;;;;8.77;6.03;;;;;;;;;;5033243;28;20040;-80
2022/10/25 04:19:58;;;;;;;11.68;6.38;;;;;;;;;;5032287;28;20017;-80
2022/10/25 04:22:24;;;;;;;14.25;6.00;;;;;;;;;;5030815;28;20401;-80
2022/10/25 04:24:51;;;;;;;9.13;6.07;;;;;;;;;;5029104;28;20018;-82
2022/10/25 04:27:17;;;;;;;12.60;6.35;;;;;;;;;;5029131;28;20022;-82
2022/10/25 04:29:43;;;;;;;12.07;5.80;;;;;;;;;;5033380;28;20041;-80
2022/10/25 04:32:09;;;;;;;9.68;5.85;;;;;;;;;;5033010;28;20017;-80
2022/10/25 04:34:36;;;;;;;12.30;5.47;;;;;;;;;;5033323;28;20052;-82
2022/10/25 04:37:02;;;;;;;10.75;6.57;;;;;;;;;;5031829;28;20048;-82
2022/10/25 04:39:28;;;;;;;12.30;5.70;;;;;;;;;;5030899;28;20493;-81
2022/10/25 04:41:55;;;;;;;9.88;6.50;;;;;;;;;;5016865;28;20037;-79
2022/10/25 04:44:21;;;;;;;13.45;6.85;;;;;;;;;;5041270;28;20037;-82
2022/10/25 04:46:47;;;;;;;12.15;5.78;;;;;;;;;;5032044;28;20044;-80
2022/10/25 04:49:14;;;;;;;10.55;6.32;;;;;;;;;;5031293;28;20355;-82
2022/10/25 04:51:40;;;;;;;10.77;7.37;;;;;;;;;;5030807;28;20082;-81
2022/10/25 04:54:06;;;;;;;12.55;6.30;;;;;;;;;;5014480;28;20025;-81
2022/10/25 04:56:33;;;;;;;11.13;6.55;;;;;;;;;;5014304;28;20045;-81
2022/10/25 04:58:59;;;;;;;11.80;5.95;;;;;;;;;;5002990;28;20104;-80
2022/10/25 05:01:25;;;;;;;17.70;6.82;;;;;;;;;;5030451;28;20084;-82
2022/10/25 05:03:51;;;;;;;11.65;5.72;;;;;;;;;;5030241;28;20032;-81
2022/10/25 05:06:21;;;;;;;26.50;7.78;;;;;;;;;;5030208;28;20037;-80
2022/10/25 05:08:49;;;;;;;8.43;5.20;;;;;;;;;;5011306;28;20117;-79
2022/10/25 05:11:16;;;;;;;11.30;7.35;;;;;;;;;;5012757;28;20021;-80
2022/10/25 05:13:43;;;;;;;17.13;7.53;;;;;;;;;;5011441;28;20026;-79
2022/10/25 05:16:13;;;;;;;12.70;6.75;;;;;;;;;;4991867;28;20038;-80
2022/10/25 05:18:41;;;;;;;18.50;6.45;;;;;;;;;;4991710;28;20096;-80
2022/10/25 05:21:09;;;;;;;18.73;8.50;;;;;;;;;;4991389;28;20019;-82
2022/10/25 05:23:35;;;;;;;14.75;7.03;;;;;;;;;;4991836;28;20484;-81
2022/10/25 05:26:03;;;;;;;11.13;6.20;;;;;;;;;;4983835;28;20048;-79
2022/10/25 05:28:29;;;;;;;11.48;6.50;;;;;;;;;;4995947;28;20026;-79
2022/10/25 05:30:55;;;;;;;13.70;6.28;;;;;;;;;;4991882;28;20030;-81
2022/10/25 05:33:22;;;;;;;11.18;6.95;;;;;;;;;;4993204;28;20029;-80
2022/10/25 05:35:48;;;;;;;16.60;6.22;;;;;;;;;;4993287;28;20415;-80
2022/10/25 05:38:14;;;;;;;10.38;6.32;;;;;;;;;;4995338;28;20049;-79
2022/10/25 05:40:40;;;;;;;17.17;7.07;;;;;;;;;;5000540;28;20026;-79
2022/10/25 05:43:07;;;;;;;12.75;6.88;;;;;;;;;;5001662;28;20032;-80
2022/10/25 05:45:33;;;;;;;16.42;6.93;;;;;;;;;;5013681;28;20101;-80
2022/10/25 05:47:59;;;;;;;17.05;8.13;;;;;;;;;;5014089;28;20037;-82
2022/10/25 05:50:48;;;;;;;;;;;;;;;;;;;;;
2022/10/25 05:53:16;;;;;;;13.32;7.38;;;;;;;;;;5037487;28;20147;-80
2022/10/25 05:55:42;;;;;;;18.88;8.43;;;;;;;;;;5044439;28;20036;-80
2022/10/25 05:58:08;;;;;;;18.58;7.40;;;;;;;;;;5037104;28;20041;-80
2022/10/25 06:00:34;;;;;;;15.00;7.63;;;;;;;;;;5033132;28;20483;-79
2022/10/25 06:03:01;;;;;;;11.80;7.40;;;;;;;;;;5033117;28;20030;-81
2022/10/25 06:05:27;;;;;;;13.07;6.70;;;;;;;;;;5033373;28;20021;-81
2022/10/25 06:07:53;;;;;;;19.65;7.75;;;;;;;;;;5033182;28;20026;-80
2022/10/25 06:10:19;;;;;;;10.40;7.38;;;;;;;;;;5033421;28;20025;-80
2022/10/25 06:12:45;;;;;;;13.05;7.18;;;;;;;;;;5020432;28;20021;-80
2022/10/25 06:15:11;;;;;;;17.20;7.45;;;;;;;;;;5014972;28;20418;-80
2022/10/25 06:17:38;;;;;;;12.02;6.82;;;;;;;;;;5031740;28;20069;-82
2022/10/25 06:20:04;;;;;;;12.15;6.75;;;;;;;;;;5031903;28;20049;-83
2022/10/25 06:22:30;;;;;;;19.73;7.35;;;;;;;;;;5031744;28;20022;-81
2022/10/25 06:24:56;;;;;;;14.70;6.88;;;;;;;;;;5026710;28;20022;-80
2022/10/25 06:27:22;;;;;;;11.55;6.97;;;;;;;;;;5028566;28;20079;-82
2022/10/25 06:29:49;;;;;;;13.73;8.07;;;;;;;;;;5031933;28;20029;-79
2022/10/25 06:32:15;;;;;;;11.38;7.05;;;;;;;;;;5013102;28;20406;-80
2022/10/25 06:34:41;;;;;;;19.45;7.47;;;;;;;;;;5032646;28;20079;-79
2022/10/25 06:37:19;;;;;;;15.90;7.72;;;;;;;;;;5035545;28;20060;-85
2022/10/25 06:39:45;;;;;;;20.80;7.35;;;;;;;;;;5034274;28;20026;-83
2022/10/25 06:42:12;;;;;;;15.30;6.88;;;;;;;;;;5018514;28;20026;-85
2022/10/25 06:44:38;;;;;;;12.70;6.60;;;;;;;;;;5031088;28;20174;-82
2022/10/25 06:47:04;;;;;;;12.38;6.38;;;;;;;;;;5032806;28;20013;-82
2022/10/25 06:49:30;;;;;;;12.95;5.93;;;;;;;;;;5032883;28;20340;-81
2022/10/25 06:51:58;;;;;;;21.45;7.03;;;;;;;;;;5035496;28;20514;-81
2022/10/25 06:54:25;;;;;;;17.48;7.63;;;;;;;;;;5035870;28;20032;-82
2022/10/25 06:56:51;;;;;;;15.40;6.22;;;;;;;;;;5036209;28;20376;-82
2022/10/25 06:59:20;;;;;;;19.13;7.30;;;;;;;;;;5036599;28;20041;-80
2022/10/25 07:01:47;;;;;;;16.70;7.07;;;;;;;;;;5036317;28;20056;-80
2022/10/25 07:04:13;;;;;;;13.27;6.15;;;;;;;;;;5033978;28;20021;-82
2022/10/25 07:06:39;;;;;;;10.70;6.13;;;;;;;;;;5034983;28;20074;-82
2022/10/25 07:09:08;;;;;;;11.25;6.72;;;;;;;;;;5034934;28;20096;-81
2022/10/25 07:11:34;;;;;;;8.43;5.65;;;;;;;;;;5027377;28;20017;-82
2022/10/25 07:14:02;;;;;;;12.30;6.45;;;;;;;;;;5033735;28;20284;-81
2022/10/25 07:16:28;;;;;;;12.82;7.68;;;;;;;;;;5035033;28;20029;-82
2022/10/25 07:19:01;;;;;;;17.08;7.35;;;;;;;;;;5036133;28;20025;-81
2022/10/25 07:21:28;;;;;;;17.38;6.05;;;;;;;;;;5040041;28;20026;-83
2022/10/25 07:23:54;;;;;;;9.60;4.60;;;;;;;;;;5037166;28;20033;-84
2022/10/25 07:26:21;;;;;;;9.98;5.18;;;;;;;;;;5034432;28;20104;-80
2022/10/25 07:28:48;;;;;;;8.13;3.65;;;;;;;;;;5034604;28;20034;-81
2022/10/25 07:31:16;;;;;;;10.02;4.32;;;;;;;;;;5034276;28;20025;-81
2022/10/25 07:33:42;;;;;;;5.75;4.03;;;;;;;;;;5034183;28;20417;-83
2022/10/25 07:36:08;;;;;;;8.68;4.20;;;;;;;;;;5035445;28;20072;-82
2022/10/25 07:38:34;;;;;;;11.13;4.50;;;;;;;;;;5034563;28;20064;-82
2022/10/25 07:41:00;;;;;;;13.23;4.40;;;;;;;;;;5033766;28;20017;-84
2022/10/25 07:43:27;;;;;;;10.10;3.75;;;;;;;;;;5033520;28;20034;-82
2022/10/25 07:45:54;;;;;;;14.20;4.93;;;;;;;;;;5034279;28;20494;-81
2022/10/25 07:48:20;;;;;;;14.73;5.13;;;;;;;;;;5033922;28;20083;-82
2022/10/25 07:50:46;;;;;;;8.63;4.10;;;;;;;;;;5032691;28;20076;-84
2022/10/25 07:53:12;;;;;;;15.15;4.00;;;;;;;;;;5034151;28;20036;-83
2022/10/25 07:55:38;;;;;;;7.90;3.17;;;;;;;;;;5034285;28;20123;-81
2022/10/25 07:58:05;;;;;;;11.20;4.53;;;;;;;;;;5033886;28;20525;-82
2022/10/25 08:00:32;;;;;;;6.40;4.25;;;;;;;;;;5034229;28;20026;-81
2022/10/25 08:02:58;;;;;;;10.05;4.63;;;;;;;;;;5033880;28;20029;-83
2022/10/25 08:05:24;;;;;;;10.88;3.63;;;;;;;;;;5032088;28;20030;-82
2022/10/25 08:07:50;;;;;;;7.80;3.60;;;;;;;;;;5034825;28;20021;-82
2022/10/25 08:10:19;;;;;;;9.75;4.20;;;;;;;;;;5033541;28;20025;-81
2022/10/25 08:12:48;;;;;;;7.45;4.18;;;;;;;;;;5034754;28;20023;-85
2022/10/25 08:15:15;;;;;;;5.70;3.10;;;;;;;;;;5034129;28;20116;-83
2022/10/25 08:17:41;;;;;;;10.80;4.35;;;;;;;;;;5033517;28;20432;-82
2022/10/25 08:20:07;;;;;;;5.47;3.65;;;;;;;;;;5035944;28;20042;-82
2022/10/25 08:22:33;;;;;;;9.15;4.32;;;;;;;;;;5039806;28;20060;-83
2022/10/25 08:25:00;;;;;;;6.75;3.83;;;;;;;;;;5039598;28;20017;-81
2022/10/25 08:27:26;;;;;;;5.97;3.55;;;;;;;;;;5041376;28;20033;-82
2022/10/25 08:29:52;;;;;;;10.50;3.72;;;;;;;;;;5044695;28;20020;-80
2022/10/25 08:32:19;;;;;;;6.97;2.97;;;;;;;;;;5048404;28;20068;-81
2022/10/25 08:34:45;;;;;;;4.68;2.60;;;;;;;;;;5040715;28;20025;-82
2022/10/25 08:37:11;;;;;;;5.65;3.78;;;4.00;82.20;;;;;;5034346;28;20394;-83
2022/10/25 08:39:38;;;;;;;10.52;2.88;;;7.60;74.20;;;;;;5034534;28;20021;-82
2022/10/25 08:42:04;;;;;;;9.65;3.38;;;7.80;73.20;;;;;;5033915;28;20084;-82
2022/10/25 08:44:51;;;;;;;7.65;3.03;;;;;;;;;;5037630;28;20025;-81
2022/10/25 08:47:26;;;;;;;6.65;3.20;;;;;;;;;;5053065;28;20030;-83
2022/10/25 08:50:11;;;;;;;5.30;3.13;;;8.40;72.70;;;;;;5032444;28;20048;-84
2022/10/25 08:52:37;;;;;;;4.90;3.10;;;;;;;;;;5035495;28;20049;-85
2022/10/25 08:55:04;;;;;;;6.28;2.85;;;;;;;;;;5035043;28;20099;-83
2022/10/25 08:57:32;;;;;;;8.18;3.78;;;;;;;;;;5034423;28;20146;-84
2022/10/25 09:00:06;;;;;;;3.40;2.60;;;;;;;;;;5033778;28;20097;-83
2022/10/25 09:02:36;;;;;;;7.70;2.88;;;;;;;;;;5034339;28;20486;-84
2022/10/25 09:05:02;;;;;;;6.13;3.05;;;;;;;;;;5035279;28;20075;-82
2022/10/25 09:07:40;;;;;;;5.50;3.22;;;;;;;;;;5041134;28;20025;-84
2022/10/25 09:10:14;;;;;;;8.32;3.35;;;;;;;;;;5033727;28;20029;-84
2022/10/25 09:12:47;;;;;;;15.80;7.82;;;;;;;;;;5032731;28;20080;-84
2022/10/25 09:15:18;;;;;;;19.25;7.70;;;;;;;;;;5033488;28;20030;-85
2022/10/25 09:17:52;;;;;;;9.52;4.72;;;;;;;;;;5032129;28;20044;-84
2022/10/25 09:20:33;;;;;;;5.05;2.40;;;;;;;;;;5034879;28;20044;-84
2022/10/25 09:23:10;;;;;;;5.05;2.58;;;;;;;;;;5033991;28;20109;-84
2022/10/25 09:25:41;;;;;;;3.33;1.63;;;;;;;;;;5037556;28;20029;-85
2022/10/25 09:28:10;;;;;;;3.47;2.20;;;;;;;;;;5032662;28;20542;-85
2022/10/25 09:30:39;;;;;;;15.32;3.53;;;;;;;;;;5033338;28;20084;-83
2022/10/25 09:33:09;;;;;;;3.92;2.17;;;;;;;;;;5034192;28;20076;-85
2022/10/25 09:35:38;;;;;;;8.18;6.13;;;;;;;;;;5033131;28;20052;-82
2022/10/25 09:38:11;;;;;;;4.80;2.03;;;;;;;;;;5033638;28;20482;-84
2022/10/25 09:40:44;;;;;;;9.63;2.42;;;;;;;;;;5035216;28;20224;-82
2022/10/25 09:43:16;;;;;;;7.75;2.65;;;;;;;;;;5034273;28;20129;-84
2022/10/25 09:45:55;;;;;;;5.57;3.55;;;;;;;;;;5032565;28;20040;-85
2022/10/25 09:48:21;;;;;;;6.32;2.85;;;;;;;;;;5033803;28;20344;-85
2022/10/25 09:50:55;;;;;;;7.10;3.35;;;;;;;;;;5036295;28;20057;-84
2022/10/25 09:53:21;;;;;;;3.97;3.03;;;;;;;;;;5035133;28;20037;-83
2022/10/25 09:55:50;;;;;;;9.25;3.28;;;;;;;;;;5034290;28;20041;-83
2022/10/25 09:58:21;;;;;;;6.93;3.83;;;;;;;;;;5033049;28;20067;-84
2022/10/25 10:00:49;;;;;;;8.00;4.35;;;;;;;;;;5032393;28;20026;-83
2022/10/25 10:03:15;;;;;;;12.77;6.32;;;;;;;;;;5032694;28;20025;-85
2022/10/25 10:05:44;;;;;;;12.30;6.90;;;;;;;;;;5035115;28;20029;-83
2022/10/25 10:08:11;;;;;;;12.73;4.97;;;;;;;;;;5032351;28;20056;-83
2022/10/25 10:10:37;;;;;;;7.72;3.72;;;;;;;;;;5032385;28;20525;-83
2022/10/25 10:13:12;;;;;;;6.65;3.55;;;;;;;;;;5034231;28;20053;-85
2022/10/25 10:15:50;;;;;;;5.88;3.25;;;;;;;;;;5034028;28;20417;-83
2022/10/25 10:18:22;;;;;;;6.95;3.05;;;;;;;;;;5031649;28;20044;-83
2022/10/25 10:20:59;;;;;;;8.73;3.13;;;;;;;;;;5033519;28;20113;-82
2022/10/25 10:23:30;;;;;;;7.30;3.65;;;;;;;;;;5035279;28;20052;-81
2022/10/25 10:25:56;;;;;;;9.85;4.75;;;;;;;;;;5038547;28;20100;-83
2022/10/25 10:28:22;;;;;;;7.72;4.40;;;;;;;;;;5038948;28;20029;-81
2022/10/25 10:30:56;;;;;;;14.23;3.85;;;;;;;;;;5045795;28;20052;-83
2022/10/25 10:33:24;;;;;;;6.35;3.35;;;;;;;;;;5041045;28;20533;-83
2022/10/25 10:35:54;;;;;;;10.85;3.22;;;;;;;;;;5032558;28;20056;-83
2022/10/25 10:38:20;;;;;;;8.90;4.25;;;;;;;;;;5036120;28;20032;-84
2022/10/25 10:40:46;;;;;;;5.53;3.92;;;;;;;;;;5036169;28;20056;-83
2022/10/25 10:43:29;;;;;;;7.15;4.05;;;;;;;;;;5036243;28;20025;-82
2022/10/25 10:45:58;;;;;;;6.07;3.55;;;;;;;;;;5036709;28;20057;-82
2022/10/25 10:48:25;;;;;;;9.07;3.85;;;;;;;;;;5038651;28;20077;-82
2022/10/25 10:50:51;;;;;;;9.00;3.30;;;;;;;;;;5043177;28;20163;-82
2022/10/25 10:53:20;;;;;;;9.35;3.60;;;;;;;;;;5051102;28;20100;-81
2022/10/25 10:55:50;;;;;;;6.07;3.25;;;;;;;;;;5044210;28;20053;-81
2022/10/25 10:58:18;;;;;;;7.60;2.80;;;;;;;;;;5042728;28;20421;-85
2022/10/25 11:00:44;;;;;;;;;;;;;;;;;;5038420;28;20103;-81
2022/10/25 11:03:30;;;;;;;5.28;3.00;;;;;;;;;;5038232;28;19975;-85
2022/10/25 11:05:59;;;;;;;6.55;2.55;;;;;;;;;;5035264;28;20377;-84
2022/10/25 11:08:25;;;;;;;6.72;2.00;;;;;;;;;;5036807;28;20025;-82
2022/10/25 11:10:51;;;;;;;10.20;2.88;;;;;;;;;;5036494;28;20471;-82
2022/10/25 11:13:24;;;;;;;5.72;2.75;;;;;;;;;;5035955;28;20025;-83
2022/10/25 11:15:53;;;;;;;6.95;2.38;;;;;;;;;;5034820;28;20022;-82
2022/10/25 11:18:23;;;;;;;9.70;3.25;;;;;;;;;;5036208;28;20033;-83
2022/10/25 11:20:52;;;;;;;4.70;2.30;;;;;;;;;;5035411;28;20028;-84
2022/10/25 11:23:40;;;;;;;11.25;2.40;;;;;;;;;;5035561;28;20025;-85
2022/10/25 11:26:13;;;;;;;4.50;2.33;;;;;;;;;;5033921;28;20025;-81
2022/10/25 11:28:57;;;;;;;5.20;2.28;;;;;;;;;;5034773;28;20096;-83
2022/10/25 11:31:33;;;;;;;7.15;2.70;;;;;;;;;;5036333;28;20017;-84
2022/10/25 11:34:07;;;;;;;8.18;3.33;;;;;;;;;;5036729;28;20026;-80
2022/10/25 11:36:39;;;;;;;4.90;2.70;;;;;;;;;;5037976;28;20025;-84
2022/10/25 11:39:12;;;;;;;5.60;3.03;;;;;;;;;;5037238;28;20029;-84
2022/10/25 11:41:46;;;;;;;6.57;2.63;;;;;;;;;;5034838;28;20013;-83
2022/10/25 11:44:27;;;;;;;4.32;2.53;;;;;;;;;;5035048;28;20032;-83
2022/10/25 11:47:01;;;;;;;7.28;2.65;;;;;;;;;;5034512;28;20013;-82
2022/10/25 11:49:47;;;;;;;3.20;2.15;;;;;;;;;;5033909;28;20034;-82
2022/10/25 11:52:30;;;;;;;5.72;2.47;;;;;;;;;;5034057;28;20126;-81
2022/10/25 11:54:56;;;;;;;5.75;2.72;;;;;;;;;;5034576;28;20061;-82
2022/10/25 11:57:41;;;;;;;5.82;2.72;;;;;;;;;;5034749;28;20059;-82
2022/10/25 12:00:23;;;;;;;7.38;2.65;;;;;;;;;;5034463;28;20040;-83
2022/10/25 12:02:49;;;;;;;10.98;5.13;;;;;;;;;;5033246;28;20029;-80
2022/10/25 12:05:27;;;;;;;5.50;3.50;;;;;;;;;;5033789;28;20082;-82
2022/10/25 12:07:53;;;;;;;;;;;;;;;;;;5032616;28;20025;-83
2022/10/25 12:10:48;;;;;;;4.03;2.08;;;;;;;;;;5033716;28;20273;-82
2022/10/25 12:13:18;;;;;;;3.60;2.30;;;;;;;;;;5016877;28;20033;-82
2022/10/25 12:15:49;;;;;;;7.50;2.63;;;;;;;;;;5033151;28;20475;-80
2022/10/25 12:18:26;;;;;;;6.43;3.40;;;;;;;;;;5036006;28;20064;-83
2022/10/25 12:20:53;;;;;;;4.63;3.33;;;;;;;;;;5034090;28;20051;-82
2022/10/25 12:23:21;;;;;;;6.82;3.00;;;;;;;;;;5034936;28;20032;-82
2022/10/25 12:26:04;;;;;;;6.25;2.80;;;;;;;;;;5035463;28;20029;-83
2022/10/25 12:28:46;;;;;;;6.35;3.35;;;;;;;;;;5037643;28;20025;-82
2022/10/25 12:31:18;;;;;;;7.70;3.42;;;;;;;;;;5038090;28;20022;-82
2022/10/25 12:33:57;;;;;;;5.88;3.33;;;;;;;;;;5033823;28;20087;-83
2022/10/25 12:36:28;;;;;;;9.85;3.88;;;;;;;;;;5034190;28;20026;-82
2022/10/25 12:38:55;;;;;;;5.35;2.90;;;;;;;;;;5038385;28;20072;-82
2022/10/25 12:41:27;;;;;;;4.30;3.30;;;;;;;;;;5039607;28;20022;-81
2022/10/25 12:44:16;;;;;;;10.85;3.70;;;;;;;;;;5033886;28;20025;-82
2022/10/25 12:47:01;;;;;;;6.43;2.95;;;;;;;;;;5025854;28;20049;-82
2022/10/25 12:49:27;;;;;;;6.50;3.13;;;;;;;;;;5034380;28;20381;-83
2022/10/25 12:52:29;;;;;;;9.30;3.38;;;;;;;;;;5033429;28;20124;-82
2022/10/25 12:55:14;;;;;;;8.90;4.05;;;;;;;;;;4954430;28;20488;-81
2022/10/25 12:57:40;;;;;;;11.90;3.45;;;;;;;;;;5027654;28;20049;-82
2022/10/25 13:00:09;;;;;;;9.23;3.72;;;;;;;;;;5034735;28;20060;-82
2022/10/25 13:02:45;;;;;;;7.32;3.70;;;;;;;;;;5035154;28;20022;-81
2022/10/25 13:05:42;;;;;;;8.60;4.22;;;;;;;;;;5032425;28;20068;-82
2022/10/25 13:08:09;;;;;;;11.03;6.13;;;;;;;;;;5034898;28;20026;-82
2022/10/25 13:10:39;;;;;;;14.65;4.63;;;;;;;;;;5038235;28;20251;-82
2022/10/25 13:13:06;;;;;;;12.82;4.53;;;;;;;;;;5034167;28;20096;-82
2022/10/25 13:15:43;;;;;;;12.23;4.68;;;;;;;;;;5033656;28;20026;-82
2022/10/25 13:18:32;;;;;;;6.80;4.78;;;;;;;;;;5032478;28;20529;-83
2022/10/25 13:21:03;;;;;;;10.73;4.70;;;;;;;;;;5032041;28;20021;-81
2022/10/25 13:23:44;;;;;;;8.38;4.80;;;;;;;;;;5032663;28;20525;-81
2022/10/25 13:26:14;;;;;;;11.52;5.22;;;;;;;;;;5037886;28;20052;-80
2022/10/25 13:28:45;;;;;;;13.05;5.10;;;;;;;;;;5038794;28;20064;-81
2022/10/25 13:31:29;;;;;;;10.95;5.70;;;;;;;;;;5034809;28;20018;-83
2022/10/25 13:34:11;;;;;;;10.30;4.75;;;;;;;;;;5031720;28;20053;-82
2022/10/25 13:36:50;;;;;;;17.30;6.00;;;;;;;;;;5033014;28;20051;-82
2022/10/25 13:39:29;;;;;;;11.02;6.28;;;;;;;;;;5033452;28;20416;-83
2022/10/25 13:42:18;;;;;;;19.52;6.18;;;;;;;;;;5032896;28;20035;-83
2022/10/25 13:44:56;;;;;;;14.65;6.50;;;;;;;;;;5024612;28;20095;-82
2022/10/25 13:47:39;;;;;;;14.75;5.70;;;12.50;63.60;;;;;;5032424;28;20025;-82
2022/10/25 13:50:53;;;;;;;12.63;5.53;;;5.60;68.60;;;;;;5030725;28;20030;-82
2022/10/25 13:53:39;;;;;;;11.15;6.55;;;5.30;67.90;;;;;;5016159;28;20065;-82
2022/10/25 13:56:35;;;;;;;18.77;8.38;;;5.30;69.90;;;;;;5032894;28;20026;-81
2022/10/25 13:59:02;;;;;;;19.77;8.25;;;5.30;71.40;;;;;;5021252;28;20049;-82
2022/10/25 14:01:29;;;;;;;21.02;9.00;;;5.30;72.90;;;;;;5037087;28;20017;-81
2022/10/25 14:04:02;;;;;;;15.30;9.05;;;5.30;73.50;;;;;;5036423;28;20036;-81
2022/10/25 14:06:35;;;;;;;14.60;8.88;;;5.20;74.00;;;;;;5036541;28;20017;-83
2022/10/25 14:09:22;;;;;;;21.38;11.45;;;5.10;74.70;;;;;;5036697;28;20017;-82
2022/10/25 14:11:48;;;;;;;;;;;5.10;75.80;;;;;;5037258;28;20029;-81
2022/10/25 14:14:43;;;;;;;20.13;10.40;;;5.00;75.50;;;;;;5036934;28;20267;-82
2022/10/25 14:17:31;;;;;;;25.27;13.73;;;5.00;76.40;;;;;;5036282;28;20109;-84
2022/10/25 14:20:06;;;;;;;19.75;10.25;;;5.00;76.90;;;;;;5036889;28;20073;-83
2022/10/25 14:22:40;;;;;;;22.50;10.20;;;4.90;77.20;;;;;;5035844;28;20029;-82
2022/10/25 14:25:28;;;;;;;18.98;10.18;;;4.80;77.70;;;;;;5039493;28;20425;-82
2022/10/25 14:28:04;;;;;;;18.00;10.00;;;4.80;78.20;;;;;;5043959;28;20063;-82
2022/10/25 14:30:33;;;;;;;16.65;9.05;;;4.80;78.60;;;;;;5036579;28;20034;-81
2022/10/25 14:33:04;;;;;;;19.25;9.02;;;4.70;78.90;;;;;;5036003;28;20105;-82
2022/10/25 14:35:36;;;;;;;15.85;8.48;;;4.80;79.30;;;;;;5047225;28;20022;-80
2022/10/25 14:38:16;;;;;;;16.73;10.43;;;4.70;79.50;;;;;;5038955;28;20029;-82
2022/10/25 14:40:56;;;;;;;17.35;9.57;;;4.70;79.90;;;;;;5037106;28;20025;-83
2022/10/25 14:43:25;;;;;;;17.70;10.90;;;4.70;80.10;;;;;;5041159;28;20445;-82
2022/10/25 14:45:56;;;;;;;17.05;10.02;;;4.70;80.30;;;;;;5035964;28;20494;-81